Time;durP1;ratioP1;P1;durP2;ratioP2;P2;SDS_P1;SDS_P2;PMS_P1;PMS_P2;Temp;Humidity;BMP_temperature;BMP_pressure;BME280_temperature;BME280_humidity;BME280_pressure;Samples;Min_cycle;Max_cycle;Signal;HPM_P1;HPM_P2
2023/12/06 00:01:48;;;;;;;47.55;30.60;;;1.80;99.90;;;;;;5001348;28;20038;-65
2023/12/06 00:04:14;;;;;;;48.78;31.58;;;1.90;99.90;;;;;;4995423;28;20038;-65
2023/12/06 00:06:40;;;;;;;48.40;30.85;;;1.80;99.90;;;;;;5000006;28;20519;-65
2023/12/06 00:09:06;;;;;;;50.10;31.73;;;1.90;99.90;;;;;;4998450;28;20120;-65
2023/12/06 00:11:31;;;;;;;49.63;30.92;;;1.80;99.90;;;;;;4987345;28;20037;-65
2023/12/06 00:13:57;;;;;;;51.65;31.25;;;1.80;99.90;;;;;;5000613;28;20042;-65
2023/12/06 00:16:23;;;;;;;48.88;30.23;;;1.80;99.90;;;;;;5005889;28;20054;-66
2023/12/06 00:18:49;;;;;;;50.53;30.77;;;1.80;99.90;;;;;;4993318;28;20145;-65
2023/12/06 00:21:15;;;;;;;47.63;29.92;;;1.90;99.90;;;;;;4988721;28;20580;-66
2023/12/06 00:23:41;;;;;;;51.47;31.27;;;1.90;99.90;;;;;;5001919;28;20076;-66
2023/12/06 00:26:07;;;;;;;50.28;32.97;;;2.00;99.90;;;;;;5003222;28;20353;-66
2023/12/06 00:28:33;;;;;;;48.13;30.25;;;2.00;99.90;;;;;;5000223;28;20048;-65
2023/12/06 00:30:58;;;;;;;46.95;30.08;;;2.00;99.90;;;;;;5004409;28;20532;-65
2023/12/06 00:33:24;;;;;;;48.58;30.30;;;2.10;99.90;;;;;;4995051;28;20038;-65
2023/12/06 00:35:51;;;;;;;51.25;31.85;;;2.10;99.90;;;;;;4990839;28;20042;-65
2023/12/06 00:38:16;;;;;;;53.17;31.73;;;2.10;99.90;;;;;;4995452;28;20034;-65
2023/12/06 00:40:44;;;;;;;50.65;30.98;;;2.00;99.90;;;;;;5002199;28;20049;-65
2023/12/06 00:43:10;;;;;;;49.95;30.58;;;2.10;99.90;;;;;;4998693;28;20463;-65
2023/12/06 00:45:35;;;;;;;48.00;30.35;;;2.00;99.90;;;;;;4989480;28;20097;-65
2023/12/06 00:48:01;;;;;;;57.88;31.75;;;2.00;99.90;;;;;;4998303;28;20050;-66
2023/12/06 00:50:27;;;;;;;53.80;32.00;;;2.10;99.90;;;;;;4996054;28;20469;-65
2023/12/06 00:52:53;;;;;;;56.00;31.92;;;2.00;99.90;;;;;;4999289;28;20073;-66
2023/12/06 00:55:19;;;;;;;51.22;31.20;;;2.10;99.90;;;;;;4998608;28;20049;-66
2023/12/06 00:57:44;;;;;;;50.63;30.17;;;2.00;99.90;;;;;;4993435;28;20124;-65
2023/12/06 01:00:11;;;;;;;51.85;30.63;;;2.10;99.90;;;;;;4996697;28;20033;-66
2023/12/06 01:02:38;;;;;;;48.88;30.15;;;2.10;99.90;;;;;;5003804;28;20447;-65
2023/12/06 01:05:05;;;;;;;49.65;30.13;;;2.10;99.90;;;;;;5000654;28;20077;-65
2023/12/06 01:07:31;;;;;;;48.85;29.90;;;2.10;99.90;;;;;;4998542;28;20042;-65
2023/12/06 01:09:57;;;;;;;46.13;30.05;;;2.10;99.90;;;;;;4996222;28;20041;-66
2023/12/06 01:12:22;;;;;;;50.58;30.38;;;2.20;99.90;;;;;;5000090;28;20487;-65
2023/12/06 01:14:48;;;;;;;46.42;29.27;;;2.10;99.90;;;;;;4997029;28;20077;-66
2023/12/06 01:17:14;;;;;;;47.30;28.90;;;2.20;99.90;;;;;;4999472;28;20107;-65
2023/12/06 01:19:39;;;;;;;52.60;30.42;;;2.20;99.90;;;;;;4994864;28;20505;-65
2023/12/06 01:22:05;;;;;;;44.50;28.83;;;2.20;99.90;;;;;;4996926;28;20030;-66
2023/12/06 01:24:31;;;;;;;45.83;29.38;;;2.20;99.90;;;;;;5002580;28;20042;-65
2023/12/06 01:26:57;;;;;;;46.38;28.25;;;2.20;99.90;;;;;;4984836;28;20048;-63
2023/12/06 01:29:22;;;;;;;44.90;27.98;;;2.20;99.90;;;;;;5000170;28;20535;-62
2023/12/06 01:31:48;;;;;;;48.90;27.55;;;2.20;99.90;;;;;;4997526;28;21093;-63
2023/12/06 01:34:14;;;;;;;43.50;27.60;;;2.20;99.90;;;;;;4994964;28;20046;-63
2023/12/06 01:36:40;;;;;;;42.47;27.33;;;2.10;99.90;;;;;;4994903;28;20065;-63
2023/12/06 01:39:06;;;;;;;39.20;26.80;;;2.20;99.90;;;;;;4998431;28;20579;-66
2023/12/06 01:41:32;;;;;;;39.63;26.25;;;2.20;99.90;;;;;;5001724;28;20050;-66
2023/12/06 01:43:58;;;;;;;40.63;26.17;;;2.20;99.90;;;;;;5002699;28;20037;-65
2023/12/06 01:46:24;;;;;;;40.80;25.52;;;2.20;99.90;;;;;;5000561;28;20370;-64
2023/12/06 01:48:51;;;;;;;44.00;26.08;;;2.20;99.90;;;;;;4999168;28;20382;-64
2023/12/06 01:51:17;;;;;;;43.10;26.27;;;2.20;99.90;;;;;;4998073;28;20113;-65
2023/12/06 01:53:44;;;;;;;41.20;26.95;;;2.10;99.90;;;;;;5000545;28;20495;-64
2023/12/06 01:56:10;;;;;;;38.65;25.50;;;2.20;99.90;;;;;;4998543;28;20041;-65
2023/12/06 01:58:38;;;;;;;39.78;25.00;;;2.20;99.90;;;;;;5002889;28;20042;-65
2023/12/06 02:01:07;;;;;;;36.00;23.38;;;2.20;99.90;;;;;;4999525;28;20453;-65
2023/12/06 02:03:34;;;;;;;37.60;24.38;;;2.10;99.90;;;;;;4996974;28;20460;-65
2023/12/06 02:06:03;;;;;;;36.20;23.73;;;2.20;99.90;;;;;;5000852;28;20508;-66
2023/12/06 02:08:34;;;;;;;37.53;25.33;;;2.20;99.90;;;;;;4998110;28;20046;-65
2023/12/06 02:11:00;;;;;;;33.97;22.42;;;2.20;99.90;;;;;;5002627;28;20416;-65
2023/12/06 02:13:27;;;;;;;34.10;22.92;;;2.10;99.90;;;;;;4995407;28;20030;-65
2023/12/06 02:15:53;;;;;;;33.90;22.45;;;2.10;99.90;;;;;;5001989;28;20052;-66
2023/12/06 02:18:20;;;;;;;31.77;22.85;;;2.20;99.90;;;;;;4995147;28;20053;-65
2023/12/06 02:20:46;;;;;;;33.53;22.10;;;1.90;99.90;;;;;;4996399;28;20049;-65
2023/12/06 02:23:15;;;;;;;32.22;21.77;;;2.30;99.90;;;;;;4997553;28;20437;-65
2023/12/06 02:25:42;;;;;;;31.67;22.45;;;2.30;99.90;;;;;;4992554;28;20046;-63
2023/12/06 02:28:08;;;;;;;32.28;22.02;;;2.40;99.90;;;;;;5002911;28;20863;-63
2023/12/06 02:30:33;;;;;;;32.08;22.83;;;2.30;99.90;;;;;;4978593;28;20042;-65
2023/12/06 02:32:59;;;;;;;28.77;20.73;;;2.30;99.90;;;;;;4998233;28;20050;-65
2023/12/06 02:35:35;;;;;;;32.92;21.85;;;2.30;99.90;;;;;;4993413;28;20476;-65
2023/12/06 02:38:02;;;;;;;31.85;21.85;;;2.30;99.90;;;;;;4987030;28;20339;-65
2023/12/06 02:40:30;;;;;;;32.00;21.40;;;2.30;99.90;;;;;;4988409;28;20121;-65
2023/12/06 02:43:00;;;;;;;31.20;20.85;;;2.30;99.90;;;;;;4988143;28;20414;-65
2023/12/06 02:45:26;;;;;;;30.52;20.75;;;2.30;99.90;;;;;;5001436;28;20517;-66
2023/12/06 02:47:52;;;;;;;30.88;20.80;;;2.30;99.90;;;;;;4998967;28;20038;-65
2023/12/06 02:50:18;;;;;;;30.20;20.30;;;2.30;99.90;;;;;;4999932;28;20037;-65
2023/12/06 02:52:44;;;;;;;31.52;20.80;;;2.30;99.90;;;;;;4995648;28;20477;-65
2023/12/06 02:55:10;;;;;;;27.08;19.52;;;2.30;99.90;;;;;;5000932;28;20037;-65
2023/12/06 02:57:35;;;;;;;30.02;20.35;;;2.30;99.90;;;;;;5001144;28;20070;-65
2023/12/06 03:00:01;;;;;;;26.48;18.95;;;2.30;99.90;;;;;;5000076;28;20462;-65
2023/12/06 03:02:27;;;;;;;26.65;17.85;;;2.30;99.90;;;;;;4989920;28;20097;-65
2023/12/06 03:04:52;;;;;;;30.55;19.05;;;2.30;99.90;;;;;;4994715;28;20038;-65
2023/12/06 03:07:18;;;;;;;28.33;18.85;;;2.30;99.90;;;;;;4998549;28;20412;-65
2023/12/06 03:09:45;;;;;;;24.60;17.75;;;2.30;99.90;;;;;;5000276;28;20081;-65
2023/12/06 03:12:11;;;;;;;27.15;17.20;;;2.30;99.90;;;;;;4997076;28;20129;-65
2023/12/06 03:14:36;;;;;;;21.90;16.45;;;2.40;99.90;;;;;;4996114;28;20531;-64
2023/12/06 03:17:02;;;;;;;26.02;17.75;;;2.40;99.90;;;;;;5003242;28;20125;-65
2023/12/06 03:19:28;;;;;;;24.55;16.60;;;2.30;99.90;;;;;;4994926;28;20030;-66
2023/12/06 03:21:53;;;;;;;24.88;17.38;;;2.40;99.90;;;;;;5002068;28;20409;-65
2023/12/06 03:24:19;;;;;;;24.58;17.00;;;2.40;99.90;;;;;;4996948;28;20133;-65
2023/12/06 03:26:45;;;;;;;23.40;16.33;;;2.40;99.90;;;;;;4998862;28;20046;-65
2023/12/06 03:29:11;;;;;;;21.98;15.43;;;2.40;99.90;;;;;;4983995;28;20131;-65
2023/12/06 03:31:36;;;;;;;21.27;14.73;;;2.40;99.90;;;;;;4994089;28;20046;-65
2023/12/06 03:34:02;;;;;;;19.83;14.55;;;2.40;99.90;;;;;;4994206;28;20064;-65
2023/12/06 03:36:29;;;;;;;20.23;14.00;;;2.40;99.90;;;;;;4999167;28;20420;-65
2023/12/06 03:38:54;;;;;;;19.55;13.95;;;2.40;99.90;;;;;;4998311;28;20109;-65
2023/12/06 03:41:20;;;;;;;17.17;13.20;;;2.40;99.90;;;;;;5000261;28;20168;-65
2023/12/06 03:43:46;;;;;;;18.80;13.50;;;2.40;99.90;;;;;;5000555;28;20505;-66
2023/12/06 03:46:12;;;;;;;18.27;13.55;;;2.40;99.90;;;;;;5002081;28;20159;-64
2023/12/06 03:48:37;;;;;;;16.30;12.82;;;2.40;99.90;;;;;;4996944;28;20050;-64
2023/12/06 03:51:03;;;;;;;20.40;13.27;;;2.40;99.90;;;;;;4991679;28;20098;-64
2023/12/06 03:53:29;;;;;;;16.48;12.52;;;2.30;99.90;;;;;;4999755;28;20050;-65
2023/12/06 03:55:55;;;;;;;17.13;12.88;;;2.40;99.90;;;;;;5002449;28;20503;-65
2023/12/06 03:58:22;;;;;;;18.88;13.40;;;2.40;99.90;;;;;;4997141;28;20124;-64
2023/12/06 04:00:47;;;;;;;22.33;13.65;;;2.40;99.90;;;;;;4988995;28;21129;-65
2023/12/06 04:03:14;;;;;;;19.60;13.60;;;2.30;99.90;;;;;;4977729;28;20405;-64
2023/12/06 04:05:42;;;;;;;20.33;14.23;;;2.40;99.90;;;;;;4988763;28;20084;-64
2023/12/06 04:08:09;;;;;;;20.48;14.18;;;2.30;99.90;;;;;;4999261;28;20041;-65
2023/12/06 04:10:35;;;;;;;20.35;14.98;;;2.40;99.90;;;;;;4995020;28;20052;-65
2023/12/06 04:13:01;;;;;;;21.73;14.65;;;2.40;99.90;;;;;;4998820;28;20030;-65
2023/12/06 04:15:27;;;;;;;18.00;13.82;;;2.40;99.90;;;;;;4999046;28;20481;-65
2023/12/06 04:17:53;;;;;;;20.33;14.52;;;2.30;99.90;;;;;;5001687;28;20125;-65
2023/12/06 04:20:19;;;;;;;20.77;15.20;;;2.30;99.90;;;;;;5000381;28;20046;-63
2023/12/06 04:22:44;;;;;;;19.58;14.45;;;2.30;99.90;;;;;;4995581;28;20041;-63
2023/12/06 04:25:13;;;;;;;20.55;14.82;;;2.40;99.90;;;;;;4993908;28;20421;-63
2023/12/06 04:27:39;;;;;;;;;;;2.40;99.90;;;;;;4996616;28;20121;-63
2023/12/06 04:30:06;;;;;;;20.25;13.95;;;2.30;99.90;;;;;;4998936;28;20036;-62
2023/12/06 04:32:31;;;;;;;17.90;13.70;;;2.40;99.90;;;;;;4972794;28;20567;-62
2023/12/06 04:34:57;;;;;;;18.08;13.75;;;2.30;99.90;;;;;;4996299;28;20038;-62
2023/12/06 04:37:23;;;;;;;20.13;14.23;;;2.40;99.90;;;;;;4998220;28;20489;-65
2023/12/06 04:39:49;;;;;;;21.80;14.23;;;2.40;99.90;;;;;;4996389;28;20041;-64
2023/12/06 04:42:15;;;;;;;19.77;13.38;;;2.40;99.90;;;;;;5002308;28;20041;-64
2023/12/06 04:44:41;;;;;;;21.77;14.27;;;2.50;99.90;;;;;;4991603;28;20120;-65
2023/12/06 04:47:07;;;;;;;18.85;13.35;;;2.40;99.90;;;;;;4997106;28;20572;-64
2023/12/06 04:49:33;;;;;;;19.35;13.27;;;2.50;99.90;;;;;;5006061;28;20465;-64
2023/12/06 04:52:00;;;;;;;16.75;12.98;;;2.50;99.90;;;;;;4999479;28;20042;-64
2023/12/06 04:54:26;;;;;;;20.42;12.82;;;2.40;99.90;;;;;;4997658;28;20493;-64
2023/12/06 04:56:52;;;;;;;19.75;12.95;;;2.50;99.90;;;;;;4999956;28;20624;-64
2023/12/06 04:59:18;;;;;;;20.75;13.20;;;2.50;99.90;;;;;;4999193;28;20044;-65
2023/12/06 05:01:44;;;;;;;16.23;12.82;;;2.50;99.90;;;;;;5002412;28;20101;-64
2023/12/06 05:04:10;;;;;;;19.77;14.90;;;2.60;99.90;;;;;;4997978;28;20554;-65
2023/12/06 05:06:36;;;;;;;16.83;13.40;;;2.60;99.90;;;;;;4979494;28;20568;-65
2023/12/06 05:09:04;;;;;;;22.75;14.80;;;2.60;99.90;;;;;;4996148;28;20038;-64
2023/12/06 05:11:30;;;;;;;22.25;15.10;;;2.50;99.90;;;;;;5002938;28;20597;-65
2023/12/06 05:13:56;;;;;;;24.27;14.57;;;2.50;99.90;;;;;;5000556;28;20046;-65
2023/12/06 05:16:22;;;;;;;19.17;12.98;;;2.70;99.90;;;;;;4999889;28;20595;-65
2023/12/06 05:18:48;;;;;;;20.52;14.82;;;2.60;99.90;;;;;;4997887;28;20505;-65
2023/12/06 05:21:13;;;;;;;18.83;14.13;;;2.60;99.90;;;;;;4982306;28;20125;-64
2023/12/06 05:23:39;;;;;;;21.08;13.63;;;2.60;99.90;;;;;;4994162;28;20179;-65
2023/12/06 05:26:05;;;;;;;23.10;14.60;;;2.60;99.90;;;;;;4999517;28;20050;-64
2023/12/06 05:28:31;;;;;;;23.23;14.27;;;2.60;99.90;;;;;;4996999;28;20630;-64
2023/12/06 05:30:56;;;;;;;17.65;14.48;;;2.60;99.90;;;;;;4989003;28;20038;-65
2023/12/06 05:33:22;;;;;;;18.30;14.32;;;2.50;99.90;;;;;;4993023;28;20037;-65
2023/12/06 05:35:48;;;;;;;21.25;14.55;;;2.70;99.90;;;;;;4997137;28;20095;-65
2023/12/06 05:38:13;;;;;;;18.92;14.38;;;2.60;99.90;;;;;;4998527;28;20149;-64
2023/12/06 05:40:39;;;;;;;19.40;14.45;;;2.60;99.90;;;;;;5003159;28;20049;-64
2023/12/06 05:43:05;;;;;;;20.33;14.70;;;2.70;99.90;;;;;;4997550;28;20040;-65
2023/12/06 05:45:31;;;;;;;19.08;12.85;;;2.60;99.90;;;;;;5003090;28;20073;-64
2023/12/06 05:47:57;;;;;;;21.30;14.30;;;2.70;99.90;;;;;;4999288;28;20457;-65
2023/12/06 05:50:23;;;;;;;18.20;12.65;;;2.70;99.90;;;;;;4994148;28;20401;-64
2023/12/06 05:52:49;;;;;;;17.17;13.65;;;2.70;99.90;;;;;;5007449;28;20120;-64
2023/12/06 05:55:16;;;;;;;19.30;13.80;;;2.60;99.90;;;;;;4999952;28;20791;-64
2023/12/06 05:57:42;;;;;;;23.67;15.23;;;2.70;99.90;;;;;;4999853;28;20539;-64
2023/12/06 06:00:12;;;;;;;17.00;13.57;;;2.70;99.90;;;;;;4998377;28;20124;-65
2023/12/06 06:02:43;;;;;;;18.95;13.85;;;2.70;99.90;;;;;;4981783;28;20052;-64
2023/12/06 06:05:12;;;;;;;20.65;13.82;;;2.80;99.90;;;;;;5001893;28;20037;-64
2023/12/06 06:07:38;;;;;;;18.85;13.07;;;2.70;99.90;;;;;;4983613;28;20048;-63
2023/12/06 06:10:04;;;;;;;18.50;13.02;;;2.80;99.90;;;;;;4997062;28;20046;-63
2023/12/06 06:12:30;;;;;;;21.67;12.45;;;2.90;99.90;;;;;;4998785;28;20131;-63
2023/12/06 06:14:56;;;;;;;19.13;12.63;;;2.90;99.90;;;;;;5000493;28;20042;-64
2023/12/06 06:17:22;;;;;;;20.80;12.70;;;2.90;99.90;;;;;;4994005;28;20417;-64
2023/12/06 06:19:48;;;;;;;15.85;12.35;;;2.80;99.90;;;;;;4998060;28;20042;-64
2023/12/06 06:22:14;;;;;;;15.52;11.73;;;2.80;99.90;;;;;;4995862;28;20041;-63
2023/12/06 06:24:40;;;;;;;14.82;11.85;;;2.90;99.90;;;;;;4989538;28;20046;-64
2023/12/06 06:27:06;;;;;;;16.20;12.52;;;2.80;99.90;;;;;;4998236;28;20046;-64
2023/12/06 06:29:32;;;;;;;17.20;13.90;;;2.80;99.90;;;;;;4995302;28;20038;-63
2023/12/06 06:31:57;;;;;;;15.73;12.98;;;2.90;99.90;;;;;;4996855;28;20069;-64
2023/12/06 06:34:23;;;;;;;19.25;13.60;;;2.80;99.90;;;;;;4996534;28;20044;-61
2023/12/06 06:36:49;;;;;;;17.95;12.93;;;3.00;99.90;;;;;;4996063;28;20112;-62
2023/12/06 06:39:15;;;;;;;22.90;12.93;;;2.90;99.90;;;;;;4999067;28;20120;-62
2023/12/06 06:41:40;;;;;;;16.15;12.93;;;2.90;99.90;;;;;;4995653;28;20068;-61
2023/12/06 06:44:06;;;;;;;19.63;11.98;;;2.90;99.90;;;;;;4995088;28;20869;-62
2023/12/06 06:46:32;;;;;;;14.57;11.38;;;2.90;99.90;;;;;;4991559;28;20540;-61
2023/12/06 06:48:58;;;;;;;18.70;11.85;;;2.90;99.90;;;;;;4991642;28;20765;-62
2023/12/06 06:51:37;;;;;;;17.85;11.15;;;2.90;99.90;;;;;;4988447;28;20477;-62
2023/12/06 06:54:09;;;;;;;17.60;11.82;;;2.90;99.90;;;;;;4999597;28;20037;-64
2023/12/06 06:56:35;;;;;;;15.73;11.48;;;3.00;99.90;;;;;;4998707;28;20141;-64
2023/12/06 06:59:00;;;;;;;17.25;12.30;;;2.90;99.90;;;;;;4994956;28;20042;-63
2023/12/06 07:01:27;;;;;;;14.80;11.82;;;2.90;99.90;;;;;;4997435;28;20460;-64
2023/12/06 07:03:56;;;;;;;14.88;11.07;;;3.00;99.90;;;;;;4988915;28;20132;-63
2023/12/06 07:06:21;;;;;;;13.88;10.73;;;3.00;99.90;;;;;;4989748;28;20045;-63
2023/12/06 07:08:47;;;;;;;12.88;10.82;;;3.00;99.90;;;;;;4989362;28;20077;-64
2023/12/06 07:11:13;;;;;;;12.68;10.18;;;2.90;99.90;;;;;;4989033;28;20049;-64
2023/12/06 07:13:39;;;;;;;14.85;11.18;;;2.90;99.90;;;;;;4987386;28;20073;-63
2023/12/06 07:16:05;;;;;;;12.88;10.63;;;3.00;99.90;;;;;;4987935;28;20038;-63
2023/12/06 07:18:34;;;;;;;13.75;10.70;;;3.00;99.90;;;;;;4987817;28;20033;-63
2023/12/06 07:21:00;;;;;;;14.98;11.68;;;3.00;99.90;;;;;;4986986;28;20033;-64
2023/12/06 07:23:26;;;;;;;14.70;11.07;;;3.00;99.90;;;;;;4988241;28;20038;-63
2023/12/06 07:25:53;;;;;;;17.65;11.52;;;3.00;99.90;;;;;;4985622;28;20100;-63
2023/12/06 07:28:19;;;;;;;15.57;12.23;;;3.00;99.90;;;;;;4986947;28;20045;-63
2023/12/06 07:30:44;;;;;;;17.17;10.60;;;3.00;99.90;;;;;;4986901;28;20041;-63
2023/12/06 07:33:11;;;;;;;16.20;11.88;;;3.00;99.90;;;;;;4984436;28;20060;-64
2023/12/06 07:35:36;;;;;;;21.05;12.90;;;3.00;99.90;;;;;;4970029;28;21266;-63
2023/12/06 07:38:04;;;;;;;20.80;12.88;;;3.10;99.90;;;;;;4982958;28;20040;-64
2023/12/06 07:40:30;;;;;;;19.08;13.10;;;3.10;99.90;;;;;;4987859;28;20063;-63
2023/12/06 07:42:56;;;;;;;19.88;13.88;;;3.20;99.90;;;;;;4999946;28;20444;-64
2023/12/06 07:45:22;;;;;;;20.38;13.57;;;3.20;99.90;;;;;;5001330;28;20057;-63
2023/12/06 07:47:50;;;;;;;16.65;13.07;;;3.10;99.90;;;;;;4994467;28;20034;-64
2023/12/06 07:50:16;;;;;;;17.40;14.43;;;3.10;99.90;;;;;;4998406;28;20496;-64
2023/12/06 07:52:42;;;;;;;15.57;12.25;;;3.10;99.90;;;;;;4988357;28;20053;-63
2023/12/06 07:55:09;;;;;;;16.50;13.90;;;3.10;99.90;;;;;;4998851;28;20045;-63
2023/12/06 07:57:36;;;;;;;17.25;13.05;;;3.10;99.90;;;;;;4997968;28;20085;-64
2023/12/06 08:00:04;;;;;;;20.50;14.18;;;3.20;99.90;;;;;;4970749;28;20042;-63
2023/12/06 08:02:32;;;;;;;19.08;14.05;;;3.30;99.90;;;;;;4994927;28;20050;-63
2023/12/06 08:04:58;;;;;;;17.55;12.40;;;3.20;99.90;;;;;;4997648;28;20040;-64
2023/12/06 08:07:24;;;;;;;17.20;13.68;;;3.20;99.90;;;;;;4998639;28;20493;-63
2023/12/06 08:09:52;;;;;;;23.25;12.70;;;3.30;99.90;;;;;;4996874;28;20510;-63
2023/12/06 08:12:18;;;;;;;15.77;12.55;;;3.30;99.90;;;;;;5000507;28;20476;-63
2023/12/06 08:14:44;;;;;;;16.77;12.55;;;3.20;99.90;;;;;;4998002;28;20092;-64
2023/12/06 08:17:09;;;;;;;19.48;12.35;;;3.20;99.90;;;;;;4997688;28;20156;-64
2023/12/06 08:19:35;;;;;;;17.58;12.70;;;3.30;99.90;;;;;;4999603;28;20061;-63
2023/12/06 08:22:01;;;;;;;18.50;12.20;;;3.30;99.90;;;;;;5000793;28;20048;-64
2023/12/06 08:24:26;;;;;;;18.35;13.82;;;3.30;99.90;;;;;;4994076;28;20484;-63
2023/12/06 08:26:52;;;;;;;19.17;13.55;;;3.30;99.90;;;;;;4995918;28;20041;-63
2023/12/06 08:29:18;;;;;;;18.50;12.75;;;3.30;99.90;;;;;;4996136;28;20041;-63
2023/12/06 08:31:44;;;;;;;17.80;13.18;;;3.30;99.90;;;;;;4997986;28;20049;-63
2023/12/06 08:34:09;;;;;;;16.27;11.80;;;3.40;99.90;;;;;;4999528;28;20543;-63
2023/12/06 08:36:35;;;;;;;17.48;11.85;;;3.40;99.90;;;;;;5000347;28;20551;-64
2023/12/06 08:39:01;;;;;;;19.20;12.65;;;3.40;99.90;;;;;;4999170;28;20254;-63
2023/12/06 08:41:26;;;;;;;18.58;12.50;;;3.40;99.90;;;;;;4998559;28;20120;-63
2023/12/06 08:43:52;;;;;;;16.00;11.52;;;3.30;99.90;;;;;;4997138;28;20037;-63
2023/12/06 08:46:19;;;;;;;13.52;11.43;;;3.30;99.90;;;;;;4999158;28;20056;-63
2023/12/06 08:48:44;;;;;;;15.38;12.32;;;3.30;99.90;;;;;;4999996;28;20065;-63
2023/12/06 08:51:10;;;;;;;16.58;12.05;;;3.30;99.90;;;;;;4997636;28;20037;-63
2023/12/06 08:53:36;;;;;;;15.98;12.00;;;3.30;99.90;;;;;;4994926;28;20042;-63
2023/12/06 08:56:02;;;;;;;14.95;12.27;;;3.30;99.90;;;;;;4999051;28;20551;-63
2023/12/06 08:58:27;;;;;;;15.30;12.18;;;3.40;99.90;;;;;;4999281;28;20042;-63
2023/12/06 09:00:53;;;;;;;18.15;12.52;;;3.40;99.90;;;;;;4998004;28;20042;-63
2023/12/06 09:03:20;;;;;;;15.02;11.70;;;3.40;99.90;;;;;;4996462;28;20042;-63
2023/12/06 09:05:47;;;;;;;16.85;11.73;;;3.40;99.90;;;;;;4998161;28;20519;-63
2023/12/06 09:08:14;;;;;;;13.95;11.25;;;3.40;99.90;;;;;;4996813;28;20046;-63
2023/12/06 09:10:40;;;;;;;18.58;11.50;;;3.40;99.90;;;;;;4996346;28;20042;-64
2023/12/06 09:13:05;;;;;;;13.82;11.02;;;3.40;99.90;;;;;;4997986;28;20428;-63
2023/12/06 09:15:31;;;;;;;16.00;12.05;;;3.40;99.90;;;;;;4996506;28;20417;-63
2023/12/06 09:17:57;;;;;;;14.73;11.45;;;3.30;99.90;;;;;;4996555;28;20045;-63
2023/12/06 09:20:23;;;;;;;17.25;11.10;;;3.30;99.90;;;;;;4998374;28;20049;-63
2023/12/06 09:22:50;;;;;;;14.15;11.18;;;3.50;99.90;;;;;;5000458;28;20046;-63
2023/12/06 09:25:16;;;;;;;15.63;10.32;;;3.40;99.90;;;;;;5002544;28;20042;-63
2023/12/06 09:27:42;;;;;;;14.80;11.00;;;3.50;99.90;;;;;;5002915;28;20042;-63
2023/12/06 09:30:08;;;;;;;13.18;10.48;;;3.50;99.90;;;;;;4993279;28;20515;-63
2023/12/06 09:32:34;;;;;;;16.33;10.65;;;3.50;99.90;;;;;;4991627;28;20053;-63
2023/12/06 09:35:00;;;;;;;12.90;10.90;;;3.50;99.90;;;;;;4989711;28;20041;-63
2023/12/06 09:37:26;;;;;;;14.82;11.43;;;3.60;99.90;;;;;;4991919;28;20056;-63
2023/12/06 09:39:53;;;;;;;17.10;10.13;;;3.40;99.90;;;;;;4991103;28;20049;-63
2023/12/06 09:42:19;;;;;;;13.05;9.90;;;3.40;99.90;;;;;;5000706;28;20038;-63
2023/12/06 09:44:45;;;;;;;15.27;9.10;;;3.40;99.90;;;;;;5000981;28;20120;-63
2023/12/06 09:47:12;;;;;;;12.50;9.93;;;3.40;99.90;;;;;;5001059;28;20049;-64
2023/12/06 09:49:38;;;;;;;13.55;10.40;;;3.50;99.90;;;;;;5001312;28;20064;-64
2023/12/06 09:52:18;;;;;;;14.90;10.77;;;3.50;99.90;;;;;;5002382;28;20046;-63
2023/12/06 09:54:44;;;;;;;13.20;10.10;;;3.60;99.90;;;;;;5001722;28;20510;-63
2023/12/06 09:57:13;;;;;;;13.07;9.50;;;3.50;99.90;;;;;;5000595;28;20054;-63
2023/12/06 09:59:40;;;;;;;11.23;9.38;;;3.60;99.90;;;;;;5001250;28;20042;-63
2023/12/06 10:02:06;;;;;;;16.90;9.82;;;3.60;99.90;;;;;;5001815;28;20428;-63
2023/12/06 10:04:33;;;;;;;12.23;9.50;;;3.60;99.90;;;;;;5002246;28;20108;-63
2023/12/06 10:07:00;;;;;;;12.10;9.65;;;3.60;99.90;;;;;;4999434;28;20804;-63
2023/12/06 10:09:26;;;;;;;13.50;10.20;;;3.70;99.90;;;;;;5001559;28;20038;-63
2023/12/06 10:11:52;;;;;;;17.08;11.15;;;3.70;99.90;;;;;;5002159;28;20520;-64
2023/12/06 10:14:19;;;;;;;14.20;11.32;;;3.70;99.90;;;;;;5000954;28;20437;-63
2023/12/06 10:16:48;;;;;;;15.70;11.45;;;3.70;99.90;;;;;;5000066;28;20594;-63
2023/12/06 10:19:19;;;;;;;19.17;12.80;;;3.80;99.90;;;;;;5002792;28;20144;-63
2023/12/06 10:21:47;;;;;;;20.08;12.98;;;3.70;99.90;;;;;;5001936;28;20072;-63
2023/12/06 10:24:13;;;;;;;19.30;12.05;;;3.70;99.90;;;;;;5001225;28;20042;-62
2023/12/06 10:26:39;;;;;;;17.40;12.10;;;3.80;99.90;;;;;;4999266;28;20305;-63
2023/12/06 10:29:05;;;;;;;14.45;11.50;;;3.80;99.90;;;;;;4999433;28;20096;-63
2023/12/06 10:31:42;;;;;;;17.33;12.20;;;3.80;99.90;;;;;;4999645;28;20077;-63
2023/12/06 10:34:10;;;;;;;17.65;11.80;;;3.80;99.90;;;;;;4993905;28;20155;-63
2023/12/06 10:36:37;;;;;;;17.38;11.45;;;3.80;99.90;;;;;;4996239;28;20042;-63
2023/12/06 10:39:09;;;;;;;14.65;11.40;;;3.80;99.90;;;;;;4971680;28;20116;-63
2023/12/06 10:41:39;;;;;;;19.27;12.10;;;3.80;99.90;;;;;;4988893;28;20044;-63
2023/12/06 10:44:07;;;;;;;14.77;11.27;;;3.80;99.90;;;;;;4989811;28;20148;-63
2023/12/06 10:46:34;;;;;;;16.83;12.32;;;3.90;99.90;;;;;;4993199;28;20046;-63
2023/12/06 10:49:01;;;;;;;18.30;12.32;;;3.90;99.90;;;;;;4989313;28;20959;-64
2023/12/06 10:51:29;;;;;;;15.77;12.68;;;3.90;99.90;;;;;;4971781;28;20518;-64
2023/12/06 10:53:59;;;;;;;20.08;11.85;;;4.00;99.90;;;;;;4987081;28;20067;-63
2023/12/06 10:56:27;;;;;;;15.45;11.45;;;4.00;99.90;;;;;;5000286;28;20044;-63
2023/12/06 10:58:54;;;;;;;21.30;10.97;;;4.00;99.90;;;;;;4997584;28;20048;-64
2023/12/06 11:01:24;;;;;;;14.65;10.52;;;3.90;99.90;;;;;;5000457;28;20300;-64
2023/12/06 11:03:52;;;;;;;21.42;12.68;;;4.00;99.90;;;;;;4996110;28;20164;-63
2023/12/06 11:06:32;;;;;;;17.23;12.70;;;4.00;99.90;;;;;;4973101;28;20157;-64
2023/12/06 11:09:10;;;;;;;18.27;12.00;;;4.00;99.90;;;;;;4990353;28;20048;-63
2023/12/06 11:11:46;;;;;;;15.80;11.23;;;4.00;99.90;;;;;;4988911;28;20572;-64
2023/12/06 11:14:23;;;;;;;12.73;9.95;;;4.00;99.90;;;;;;4980379;28;20045;-63
2023/12/06 11:17:07;;;;;;;19.85;10.30;;;4.00;99.90;;;;;;4997331;28;20089;-63
2023/12/06 11:19:36;;;;;;;13.35;9.63;;;4.10;99.90;;;;;;4997173;28;20065;-63
2023/12/06 11:22:03;;;;;;;13.47;10.40;;;4.10;99.90;;;;;;4995157;28;21112;-63
2023/12/06 11:24:29;;;;;;;14.05;9.70;;;4.10;99.90;;;;;;4985280;28;21162;-64
2023/12/06 11:26:55;;;;;;;10.95;9.30;;;4.10;99.90;;;;;;4985085;28;20757;-62
2023/12/06 11:29:25;;;;;;;13.80;10.30;;;4.10;99.90;;;;;;4988791;28;20065;-63
2023/12/06 11:31:58;;;;;;;15.23;9.85;;;4.10;99.90;;;;;;4986963;28;20415;-62
2023/12/06 11:34:36;;;;;;;15.15;11.13;;;4.20;99.90;;;;;;4999212;28;20041;-63
2023/12/06 11:37:06;;;;;;;14.15;10.55;;;4.20;99.90;;;;;;4988245;28;20493;-64
2023/12/06 11:39:32;;;;;;;14.73;10.77;;;4.20;99.90;;;;;;4986099;28;20037;-63
2023/12/06 11:41:59;;;;;;;14.63;10.98;;;4.20;99.90;;;;;;4994436;28;20029;-63
2023/12/06 11:44:25;;;;;;;15.32;10.57;;;4.30;99.90;;;;;;4997327;28;20038;-63
2023/12/06 11:46:57;;;;;;;13.95;11.10;;;4.30;99.90;;;;;;4992928;28;20049;-63
2023/12/06 11:49:26;;;;;;;12.77;10.48;;;4.30;99.90;;;;;;4981727;28;20405;-63
2023/12/06 11:52:02;;;;;;;15.70;10.35;;;4.30;99.90;;;;;;4995462;28;20048;-64
2023/12/06 11:54:28;;;;;;;13.00;9.40;;;4.40;99.90;;;;;;4996332;28;20584;-63
2023/12/06 11:57:07;;;;;;;13.32;8.43;;;4.30;99.90;;;;;;4999770;28;20373;-63
2023/12/06 11:59:34;;;;;;;14.10;8.93;;;4.30;99.90;;;;;;4991698;28;20041;-64
2023/12/06 12:02:00;;;;;;;13.18;8.65;;;4.30;99.90;;;;;;4990218;28;20556;-63
2023/12/06 12:04:27;;;;;;;10.63;8.40;;;4.30;99.90;;;;;;4976605;28;20544;-64
2023/12/06 12:06:53;;;;;;;10.15;8.63;;;4.30;99.90;;;;;;5000199;28;20112;-63
2023/12/06 12:09:21;;;;;;;12.70;8.38;;;4.20;99.90;;;;;;4990298;28;20053;-63
2023/12/06 12:11:46;;;;;;;10.02;7.72;;;4.30;99.90;;;;;;4991130;28;20129;-63
2023/12/06 12:14:12;;;;;;;10.52;7.65;;;4.30;99.90;;;;;;4990494;28;20044;-64
2023/12/06 12:16:39;;;;;;;9.00;6.90;;;4.30;99.90;;;;;;4989667;28;20488;-64
2023/12/06 12:19:06;;;;;;;7.82;6.72;;;4.30;99.90;;;;;;4983533;28;20060;-63
2023/12/06 12:21:32;;;;;;;9.52;8.32;;;4.30;99.90;;;;;;4985330;28;21247;-63
2023/12/06 12:24:00;;;;;;;10.30;8.10;;;4.40;99.90;;;;;;4991414;28;20136;-63
2023/12/06 12:26:26;;;;;;;13.18;8.35;;;4.30;99.90;;;;;;4994217;28;20337;-63
2023/12/06 12:28:52;;;;;;;10.93;8.93;;;4.30;99.90;;;;;;4996260;28;20432;-63
2023/12/06 12:31:26;;;;;;;10.65;8.63;;;4.30;99.90;;;;;;4992038;28;20065;-64
2023/12/06 12:33:52;;;;;;;11.10;9.02;;;4.20;99.90;;;;;;4993343;28;20052;-63
2023/12/06 12:36:19;;;;;;;9.90;8.38;;;4.20;99.90;;;;;;4993731;28;20081;-66